sensor_id;sensor_type;location;lat;lon;timestamp;pressure;altitude;pressure_sealevel;temperature;humidity
72330;BME280;69154;52.076;5.110;2023-04-19T00:01:49;102882.63;;;1.83;46.02
72330;BME280;69154;52.076;5.110;2023-04-19T00:04:15;102879.29;;;2.35;44.48
72330;BME280;69154;52.076;5.110;2023-04-19T00:06:40;102877.33;;;3.14;43.50
72330;BME280;69154;52.076;5.110;2023-04-19T00:09:06;102880.09;;;3.33;42.92
72330;BME280;69154;52.076;5.110;2023-04-19T00:11:30;102875.33;;;3.83;42.45
72330;BME280;69154;52.076;5.110;2023-04-19T00:13:56;102875.82;;;3.15;43.75
72330;BME280;69154;52.076;5.110;2023-04-19T00:16:21;102871.70;;;1.49;45.85
72330;BME280;69154;52.076;5.110;2023-04-19T00:18:47;102873.53;;;2.44;45.58
72330;BME280;69154;52.076;5.110;2023-04-19T00:21:12;102873.95;;;2.06;45.88
72330;BME280;69154;52.076;5.110;2023-04-19T00:23:37;102870.53;;;2.09;46.47
72330;BME280;69154;52.076;5.110;2023-04-19T00:26:03;102871.31;;;2.45;46.70
72330;BME280;69154;52.076;5.110;2023-04-19T00:28:28;102870.62;;;2.90;44.55
72330;BME280;69154;52.076;5.110;2023-04-19T00:30:53;102870.79;;;2.95;45.32
72330;BME280;69154;52.076;5.110;2023-04-19T00:33:18;102868.01;;;3.29;43.59
72330;BME280;69154;52.076;5.110;2023-04-19T00:35:43;102864.97;;;3.30;43.14
72330;BME280;69154;52.076;5.110;2023-04-19T00:38:09;102862.75;;;3.44;43.79
72330;BME280;69154;52.076;5.110;2023-04-19T00:40:36;102860.01;;;3.23;42.85
72330;BME280;69154;52.076;5.110;2023-04-19T00:43:00;102857.97;;;3.49;44.11
72330;BME280;69154;52.076;5.110;2023-04-19T00:45:26;102856.18;;;3.19;43.22
72330;BME280;69154;52.076;5.110;2023-04-19T00:47:52;102854.53;;;3.75;43.12
72330;BME280;69154;52.076;5.110;2023-04-19T00:50:17;102850.73;;;3.11;42.91
72330;BME280;69154;52.076;5.110;2023-04-19T00:52:43;102855.97;;;4.05;40.93
72330;BME280;69154;52.076;5.110;2023-04-19T00:55:13;102853.44;;;4.03;41.58
72330;BME280;69154;52.076;5.110;2023-04-19T00:57:33;102856.87;;;2.90;43.22
72330;BME280;69154;52.076;5.110;2023-04-19T00:59:58;102857.00;;;3.02;43.53
72330;BME280;69154;52.076;5.110;2023-04-19T01:02:23;102858.68;;;4.10;41.20
72330;BME280;69154;52.076;5.110;2023-04-19T01:04:49;102854.33;;;3.85;41.64
72330;BME280;69154;52.076;5.110;2023-04-19T01:07:15;102852.37;;;3.58;41.22
72330;BME280;69154;52.076;5.110;2023-04-19T01:09:42;102851.53;;;4.03;41.48
72330;BME280;69154;52.076;5.110;2023-04-19T01:12:06;102856.08;;;5.36;39.32
72330;BME280;69154;52.076;5.110;2023-04-19T01:14:31;102851.43;;;4.80;39.97
72330;BME280;69154;52.076;5.110;2023-04-19T01:16:57;102850.03;;;4.22;40.86
72330;BME280;69154;52.076;5.110;2023-04-19T01:19:22;102850.39;;;3.35;41.13
72330;BME280;69154;52.076;5.110;2023-04-19T01:21:47;102851.00;;;3.96;41.47
72330;BME280;69154;52.076;5.110;2023-04-19T01:24:13;102853.06;;;2.29;43.25
72330;BME280;69154;52.076;5.110;2023-04-19T01:26:38;102849.71;;;2.48;44.79
72330;BME280;69154;52.076;5.110;2023-04-19T01:29:03;102848.87;;;3.56;43.36
72330;BME280;69154;52.076;5.110;2023-04-19T01:31:28;102847.15;;;3.10;44.11
72330;BME280;69154;52.076;5.110;2023-04-19T01:33:54;102850.43;;;3.11;44.52
72330;BME280;69154;52.076;5.110;2023-04-19T01:36:20;102851.34;;;2.07;44.27
72330;BME280;69154;52.076;5.110;2023-04-19T01:38:46;102854.29;;;3.00;43.91
72330;BME280;69154;52.076;5.110;2023-04-19T01:41:10;102849.37;;;2.76;44.05
72330;BME280;69154;52.076;5.110;2023-04-19T01:43:40;102845.52;;;2.74;43.75
72330;BME280;69154;52.076;5.110;2023-04-19T01:46:01;102841.12;;;2.27;46.31
72330;BME280;69154;52.076;5.110;2023-04-19T01:48:27;102842.12;;;0.96;49.21
72330;BME280;69154;52.076;5.110;2023-04-19T01:50:53;102836.42;;;1.79;48.22
72330;BME280;69154;52.076;5.110;2023-04-19T01:53:18;102839.00;;;1.73;47.14
72330;BME280;69154;52.076;5.110;2023-04-19T01:55:43;102839.87;;;2.30;46.46
72330;BME280;69154;52.076;5.110;2023-04-19T01:58:08;102845.78;;;2.48;46.66
72330;BME280;69154;52.076;5.110;2023-04-19T02:00:34;102843.75;;;3.58;43.53
72330;BME280;69154;52.076;5.110;2023-04-19T02:02:59;102842.73;;;3.76;43.24
72330;BME280;69154;52.076;5.110;2023-04-19T02:05:25;102840.90;;;1.83;46.58
72330;BME280;69154;52.076;5.110;2023-04-19T02:07:50;102840.88;;;2.26;46.34
72330;BME280;69154;52.076;5.110;2023-04-19T02:10:15;102843.66;;;2.47;45.77
72330;BME280;69154;52.076;5.110;2023-04-19T02:12:40;102838.69;;;2.02;47.46
72330;BME280;69154;52.076;5.110;2023-04-19T02:15:07;102835.96;;;3.55;44.98
72330;BME280;69154;52.076;5.110;2023-04-19T02:17:32;102836.36;;;3.13;44.79
72330;BME280;69154;52.076;5.110;2023-04-19T02:19:57;102843.03;;;2.55;45.55
72330;BME280;69154;52.076;5.110;2023-04-19T02:22:23;102842.08;;;2.66;44.66
72330;BME280;69154;52.076;5.110;2023-04-19T02:24:54;102841.54;;;4.34;42.56
72330;BME280;69154;52.076;5.110;2023-04-19T02:27:13;102838.69;;;2.88;43.76
72330;BME280;69154;52.076;5.110;2023-04-19T02:29:39;102838.53;;;3.74;42.42
72330;BME280;69154;52.076;5.110;2023-04-19T02:32:05;102840.59;;;4.31;42.51
72330;BME280;69154;52.076;5.110;2023-04-19T02:34:29;102842.94;;;4.04;41.92
72330;BME280;69154;52.076;5.110;2023-04-19T02:36:54;102841.38;;;4.32;42.38
72330;BME280;69154;52.076;5.110;2023-04-19T02:39:25;102839.97;;;3.26;43.59
72330;BME280;69154;52.076;5.110;2023-04-19T02:41:45;102839.55;;;4.12;42.91
72330;BME280;69154;52.076;5.110;2023-04-19T02:44:11;102842.76;;;3.71;42.78
72330;BME280;69154;52.076;5.110;2023-04-19T02:46:36;102844.49;;;3.63;43.15
72330;BME280;69154;52.076;5.110;2023-04-19T02:49:01;102844.76;;;3.49;43.13
72330;BME280;69154;52.076;5.110;2023-04-19T02:51:27;102847.46;;;2.91;44.41
72330;BME280;69154;52.076;5.110;2023-04-19T02:53:53;102845.31;;;3.66;44.65
72330;BME280;69154;52.076;5.110;2023-04-19T02:56:18;102849.95;;;2.09;45.20
72330;BME280;69154;52.076;5.110;2023-04-19T02:58:44;102848.27;;;2.01;46.75
72330;BME280;69154;52.076;5.110;2023-04-19T03:01:09;102850.51;;;2.99;45.73
72330;BME280;69154;52.076;5.110;2023-04-19T03:03:34;102854.94;;;2.39;46.68
72330;BME280;69154;52.076;5.110;2023-04-19T03:05:59;102851.49;;;3.20;45.73
72330;BME280;69154;52.076;5.110;2023-04-19T03:08:25;102849.37;;;2.25;45.37
72330;BME280;69154;52.076;5.110;2023-04-19T03:10:50;102839.54;;;3.12;45.44
72330;BME280;69154;52.076;5.110;2023-04-19T03:13:15;102840.66;;;3.45;43.42
72330;BME280;69154;52.076;5.110;2023-04-19T03:15:40;102845.78;;;2.34;45.12
72330;BME280;69154;52.076;5.110;2023-04-19T03:18:06;102840.45;;;3.70;44.24
72330;BME280;69154;52.076;5.110;2023-04-19T03:20:31;102840.55;;;4.16;42.85
72330;BME280;69154;52.076;5.110;2023-04-19T03:22:56;102839.72;;;4.68;42.24
72330;BME280;69154;52.076;5.110;2023-04-19T03:25:22;102839.13;;;3.59;42.25
72330;BME280;69154;52.076;5.110;2023-04-19T03:27:47;102837.23;;;3.96;43.14
72330;BME280;69154;52.076;5.110;2023-04-19T03:30:12;102836.91;;;2.63;45.79
72330;BME280;69154;52.076;5.110;2023-04-19T03:32:37;102835.52;;;3.51;44.19
72330;BME280;69154;52.076;5.110;2023-04-19T03:35:04;102833.98;;;3.56;43.85
72330;BME280;69154;52.076;5.110;2023-04-19T03:37:29;102835.49;;;2.90;45.78
72330;BME280;69154;52.076;5.110;2023-04-19T03:39:54;102837.98;;;3.82;43.79
72330;BME280;69154;52.076;5.110;2023-04-19T03:42:19;102835.02;;;3.40;43.21
72330;BME280;69154;52.076;5.110;2023-04-19T03:44:45;102832.89;;;2.73;45.95
72330;BME280;69154;52.076;5.110;2023-04-19T03:47:10;102832.37;;;3.01;45.00
72330;BME280;69154;52.076;5.110;2023-04-19T03:49:37;102830.56;;;2.07;47.26
72330;BME280;69154;52.076;5.110;2023-04-19T03:52:03;102833.79;;;2.78;46.38
72330;BME280;69154;52.076;5.110;2023-04-19T03:54:27;102830.22;;;1.17;49.10
72330;BME280;69154;52.076;5.110;2023-04-19T03:56:52;102834.06;;;2.53;47.71
72330;BME280;69154;52.076;5.110;2023-04-19T03:59:17;102837.84;;;2.49;46.92
72330;BME280;69154;52.076;5.110;2023-04-19T04:01:43;102838.78;;;2.69;46.81
72330;BME280;69154;52.076;5.110;2023-04-19T04:04:09;102841.11;;;2.91;45.27
72330;BME280;69154;52.076;5.110;2023-04-19T04:06:34;102846.05;;;4.85;42.72
72330;BME280;69154;52.076;5.110;2023-04-19T04:09:00;102837.80;;;3.43;44.36
72330;BME280;69154;52.076;5.110;2023-04-19T04:11:25;102836.64;;;3.46;43.73
72330;BME280;69154;52.076;5.110;2023-04-19T04:13:51;102837.40;;;3.20;44.69
72330;BME280;69154;52.076;5.110;2023-04-19T04:16:16;102839.46;;;1.90;46.20
72330;BME280;69154;52.076;5.110;2023-04-19T04:18:41;102840.46;;;3.34;44.11
72330;BME280;69154;52.076;5.110;2023-04-19T04:21:06;102843.91;;;3.24;43.95
72330;BME280;69154;52.076;5.110;2023-04-19T04:23:32;102843.67;;;2.60;44.76
72330;BME280;69154;52.076;5.110;2023-04-19T04:25:58;102848.13;;;3.36;43.93
72330;BME280;69154;52.076;5.110;2023-04-19T04:28:23;102849.23;;;3.63;42.71
72330;BME280;69154;52.076;5.110;2023-04-19T04:30:48;102844.59;;;3.37;43.55
72330;BME280;69154;52.076;5.110;2023-04-19T04:33:13;102854.06;;;3.24;43.22
72330;BME280;69154;52.076;5.110;2023-04-19T04:35:39;102850.03;;;3.35;43.33
72330;BME280;69154;52.076;5.110;2023-04-19T04:38:05;102848.25;;;2.39;45.06
72330;BME280;69154;52.076;5.110;2023-04-19T04:40:29;102853.82;;;4.97;40.20
72330;BME280;69154;52.076;5.110;2023-04-19T04:42:55;102846.96;;;3.48;43.09
72330;BME280;69154;52.076;5.110;2023-04-19T04:45:20;102847.12;;;2.64;42.15
72330;BME280;69154;52.076;5.110;2023-04-19T04:47:45;102850.66;;;4.33;41.42
72330;BME280;69154;52.076;5.110;2023-04-19T04:50:11;102844.64;;;3.32;41.33
72330;BME280;69154;52.076;5.110;2023-04-19T04:52:46;102849.06;;;1.59;44.71
72330;BME280;69154;52.076;5.110;2023-04-19T04:55:11;102848.31;;;3.32;42.79
72330;BME280;69154;52.076;5.110;2023-04-19T04:57:41;102849.39;;;3.38;43.61
72330;BME280;69154;52.076;5.110;2023-04-19T05:00:04;102850.93;;;3.21;43.68
72330;BME280;69154;52.076;5.110;2023-04-19T05:02:28;102849.03;;;1.32;44.95
72330;BME280;69154;52.076;5.110;2023-04-19T05:04:53;102853.28;;;2.60;43.78
72330;BME280;69154;52.076;5.110;2023-04-19T05:07:18;102851.03;;;2.87;42.76
72330;BME280;69154;52.076;5.110;2023-04-19T05:10:12;102852.82;;;2.98;43.76
72330;BME280;69154;52.076;5.110;2023-04-19T05:12:25;102848.66;;;2.52;42.55
72330;BME280;69154;52.076;5.110;2023-04-19T05:14:55;102857.22;;;2.90;43.34
72330;BME280;69154;52.076;5.110;2023-04-19T05:17:15;102851.68;;;2.16;43.71
72330;BME280;69154;52.076;5.110;2023-04-19T05:19:41;102854.47;;;3.37;41.83
72330;BME280;69154;52.076;5.110;2023-04-19T05:22:07;102855.27;;;2.74;43.36
72330;BME280;69154;52.076;5.110;2023-04-19T05:24:33;102855.76;;;1.93;44.70
72330;BME280;69154;52.076;5.110;2023-04-19T05:26:58;102863.97;;;3.31;42.46
72330;BME280;69154;52.076;5.110;2023-04-19T05:29:24;102864.11;;;2.61;42.55
72330;BME280;69154;52.076;5.110;2023-04-19T05:31:49;102862.69;;;3.83;41.02
72330;BME280;69154;52.076;5.110;2023-04-19T05:34:15;102868.35;;;2.42;43.16
72330;BME280;69154;52.076;5.110;2023-04-19T05:36:40;102870.31;;;3.48;41.55
72330;BME280;69154;52.076;5.110;2023-04-19T05:39:06;102871.15;;;3.24;41.51
72330;BME280;69154;52.076;5.110;2023-04-19T05:41:31;102868.25;;;1.85;43.72
72330;BME280;69154;52.076;5.110;2023-04-19T05:43:57;102874.31;;;3.60;40.35
72330;BME280;69154;52.076;5.110;2023-04-19T05:46:22;102868.89;;;3.32;39.97
72330;BME280;69154;52.076;5.110;2023-04-19T05:48:47;102867.39;;;1.96;43.10
72330;BME280;69154;52.076;5.110;2023-04-19T05:51:13;102866.11;;;2.27;42.10
72330;BME280;69154;52.076;5.110;2023-04-19T05:53:39;102863.49;;;2.25;43.03
72330;BME280;69154;52.076;5.110;2023-04-19T05:56:06;102860.87;;;4.54;39.52
72330;BME280;69154;52.076;5.110;2023-04-19T05:58:29;102863.38;;;3.25;39.90
72330;BME280;69154;52.076;5.110;2023-04-19T06:00:54;102864.17;;;4.02;37.98
72330;BME280;69154;52.076;5.110;2023-04-19T06:03:19;102868.26;;;2.68;38.45
72330;BME280;69154;52.076;5.110;2023-04-19T06:05:45;102863.50;;;3.77;38.94
72330;BME280;69154;52.076;5.110;2023-04-19T06:08:11;102860.47;;;4.00;37.80
72330;BME280;69154;52.076;5.110;2023-04-19T06:10:37;102864.70;;;4.72;36.57
72330;BME280;69154;52.076;5.110;2023-04-19T06:13:02;102862.96;;;2.46;39.41
72330;BME280;69154;52.076;5.110;2023-04-19T06:15:27;102861.89;;;3.27;38.87
72330;BME280;69154;52.076;5.110;2023-04-19T06:17:53;102860.53;;;3.81;38.07
72330;BME280;69154;52.076;5.110;2023-04-19T06:20:18;102863.51;;;3.45;35.95
72330;BME280;69154;52.076;5.110;2023-04-19T06:22:45;102862.76;;;4.52;35.64
72330;BME280;69154;52.076;5.110;2023-04-19T06:25:09;102859.60;;;4.15;35.58
72330;BME280;69154;52.076;5.110;2023-04-19T06:27:35;102860.85;;;3.50;36.27
72330;BME280;69154;52.076;5.110;2023-04-19T06:30:00;102865.42;;;2.19;37.64
72330;BME280;69154;52.076;5.110;2023-04-19T06:32:25;102867.13;;;2.07;37.95
72330;BME280;69154;52.076;5.110;2023-04-19T06:34:51;102865.73;;;3.09;36.99
72330;BME280;69154;52.076;5.110;2023-04-19T06:37:16;102867.33;;;2.50;37.48
72330;BME280;69154;52.076;5.110;2023-04-19T06:39:48;102862.23;;;3.47;36.82
72330;BME280;69154;52.076;5.110;2023-04-19T06:42:07;102864.81;;;3.67;35.15
72330;BME280;69154;52.076;5.110;2023-04-19T06:44:33;102865.66;;;5.33;32.92
72330;BME280;69154;52.076;5.110;2023-04-19T06:46:58;102864.30;;;5.02;33.01
72330;BME280;69154;52.076;5.110;2023-04-19T06:49:24;102863.42;;;4.79;32.71
72330;BME280;69154;52.076;5.110;2023-04-19T06:51:49;102865.40;;;7.35;31.12
72330;BME280;69154;52.076;5.110;2023-04-19T06:54:14;102861.61;;;5.47;31.29
72330;BME280;69154;52.076;5.110;2023-04-19T06:56:41;102863.27;;;4.31;33.95
72330;BME280;69154;52.076;5.110;2023-04-19T06:59:11;102860.96;;;4.71;33.07
72330;BME280;69154;52.076;5.110;2023-04-19T07:01:31;102861.49;;;4.94;32.60
72330;BME280;69154;52.076;5.110;2023-04-19T07:03:56;102858.82;;;4.47;33.48
72330;BME280;69154;52.076;5.110;2023-04-19T07:06:21;102862.58;;;4.55;32.59
72330;BME280;69154;52.076;5.110;2023-04-19T07:08:47;102867.52;;;4.40;32.38
72330;BME280;69154;52.076;5.110;2023-04-19T07:11:13;102866.72;;;4.60;30.87
72330;BME280;69154;52.076;5.110;2023-04-19T07:13:38;102858.68;;;7.01;29.72
72330;BME280;69154;52.076;5.110;2023-04-19T07:16:05;102857.02;;;6.74;29.27
72330;BME280;69154;52.076;5.110;2023-04-19T07:18:30;102859.64;;;6.63;26.58
72330;BME280;69154;52.076;5.110;2023-04-19T07:20:55;102863.84;;;5.59;27.67
72330;BME280;69154;52.076;5.110;2023-04-19T07:23:20;102860.62;;;5.46;27.63
72330;BME280;69154;52.076;5.110;2023-04-19T07:25:46;102858.33;;;5.68;28.14
72330;BME280;69154;52.076;5.110;2023-04-19T07:28:11;102854.38;;;5.10;28.48
72330;BME280;69154;52.076;5.110;2023-04-19T07:30:36;102856.33;;;5.96;27.66
72330;BME280;69154;52.076;5.110;2023-04-19T07:33:02;102857.74;;;7.92;25.71
72330;BME280;69154;52.076;5.110;2023-04-19T07:35:27;102854.29;;;6.88;25.94
72330;BME280;69154;52.076;5.110;2023-04-19T07:38:02;102855.84;;;6.80;26.82
72330;BME280;69154;52.076;5.110;2023-04-19T07:40:18;102858.33;;;4.37;27.39
72330;BME280;69154;52.076;5.110;2023-04-19T07:42:43;102860.68;;;4.62;27.65
72330;BME280;69154;52.076;5.110;2023-04-19T07:45:09;102855.18;;;5.57;27.02
72330;BME280;69154;52.076;5.110;2023-04-19T07:47:34;102857.05;;;5.92;27.09
72330;BME280;69154;52.076;5.110;2023-04-19T07:49:59;102861.61;;;3.78;29.96
72330;BME280;69154;52.076;5.110;2023-04-19T07:52:25;102856.90;;;4.10;29.52
72330;BME280;69154;52.076;5.110;2023-04-19T07:54:50;102860.32;;;5.06;28.68
72330;BME280;69154;52.076;5.110;2023-04-19T07:57:20;102854.92;;;4.33;28.22
72330;BME280;69154;52.076;5.110;2023-04-19T07:59:42;102856.44;;;5.93;27.96
72330;BME280;69154;52.076;5.110;2023-04-19T08:02:06;102850.47;;;6.67;26.44
72330;BME280;69154;52.076;5.110;2023-04-19T08:04:32;102856.30;;;6.08;26.64
72330;BME280;69154;52.076;5.110;2023-04-19T08:06:58;102854.31;;;5.73;27.69
72330;BME280;69154;52.076;5.110;2023-04-19T08:09:23;102858.50;;;5.83;26.81
72330;BME280;69154;52.076;5.110;2023-04-19T08:11:54;102856.99;;;6.68;25.63
72330;BME280;69154;52.076;5.110;2023-04-19T08:14:14;102854.07;;;5.21;26.27
72330;BME280;69154;52.076;5.110;2023-04-19T08:16:40;102852.52;;;5.59;27.01
72330;BME280;69154;52.076;5.110;2023-04-19T08:19:06;102854.32;;;6.77;26.26
72330;BME280;69154;52.076;5.110;2023-04-19T08:21:30;102854.98;;;5.40;27.09
72330;BME280;69154;52.076;5.110;2023-04-19T08:23:55;102851.74;;;4.29;29.49
72330;BME280;69154;52.076;5.110;2023-04-19T08:26:20;102849.75;;;3.75;29.25
72330;BME280;69154;52.076;5.110;2023-04-19T08:28:46;102857.36;;;5.97;26.30
72330;BME280;69154;52.076;5.110;2023-04-19T08:31:12;102849.47;;;3.88;28.33
72330;BME280;69154;52.076;5.110;2023-04-19T08:33:37;102859.85;;;3.94;28.25
72330;BME280;69154;52.076;5.110;2023-04-19T08:36:02;102854.65;;;3.85;28.32
72330;BME280;69154;52.076;5.110;2023-04-19T08:38:27;102856.45;;;3.29;29.69
72330;BME280;69154;52.076;5.110;2023-04-19T08:40:53;102856.33;;;3.84;28.15
72330;BME280;69154;52.076;5.110;2023-04-19T08:43:19;102845.23;;;4.07;26.94
72330;BME280;69154;52.076;5.110;2023-04-19T08:45:45;102841.66;;;4.54;28.00
72330;BME280;69154;52.076;5.110;2023-04-19T08:48:09;102843.63;;;4.27;27.57
72330;BME280;69154;52.076;5.110;2023-04-19T08:50:35;102851.24;;;3.75;27.55
72330;BME280;69154;52.076;5.110;2023-04-19T08:53:00;102850.69;;;4.38;26.83
72330;BME280;69154;52.076;5.110;2023-04-19T08:55:27;102844.56;;;4.35;27.29
72330;BME280;69154;52.076;5.110;2023-04-19T08:57:50;102843.59;;;4.19;27.18
72330;BME280;69154;52.076;5.110;2023-04-19T09:00:16;102846.21;;;4.25;26.41
72330;BME280;69154;52.076;5.110;2023-04-19T09:02:45;102838.45;;;4.29;26.77
72330;BME280;69154;52.076;5.110;2023-04-19T09:05:07;102842.31;;;4.11;26.42
72330;BME280;69154;52.076;5.110;2023-04-19T09:07:31;102840.01;;;5.48;25.47
72330;BME280;69154;52.076;5.110;2023-04-19T09:10:06;102831.79;;;6.68;24.84
72330;BME280;69154;52.076;5.110;2023-04-19T09:12:22;102844.35;;;4.74;26.17
72330;BME280;69154;52.076;5.110;2023-04-19T09:14:48;102847.63;;;3.65;27.62
72330;BME280;69154;52.076;5.110;2023-04-19T09:17:15;102841.39;;;3.19;27.74
72330;BME280;69154;52.076;5.110;2023-04-19T09:20:06;102839.88;;;4.43;28.01
72330;BME280;69154;52.076;5.110;2023-04-19T09:22:31;102840.47;;;3.99;27.40
72330;BME280;69154;52.076;5.110;2023-04-19T09:24:57;102840.89;;;5.89;26.11
72330;BME280;69154;52.076;5.110;2023-04-19T09:27:28;102838.52;;;3.90;26.36
72330;BME280;69154;52.076;5.110;2023-04-19T09:29:52;102838.50;;;4.18;25.99
72330;BME280;69154;52.076;5.110;2023-04-19T09:32:17;102838.29;;;4.35;25.92
72330;BME280;69154;52.076;5.110;2023-04-19T09:34:50;102838.10;;;5.26;24.69
72330;BME280;69154;52.076;5.110;2023-04-19T09:37:11;102836.79;;;3.80;26.01
72330;BME280;69154;52.076;5.110;2023-04-19T09:39:29;102830.20;;;3.93;25.53
72330;BME280;69154;52.076;5.110;2023-04-19T09:41:53;102834.71;;;3.99;25.24
72330;BME280;69154;52.076;5.110;2023-04-19T09:44:18;102849.00;;;3.68;24.69
72330;BME280;69154;52.076;5.110;2023-04-19T09:46:48;102838.00;;;5.90;24.30
72330;BME280;69154;52.076;5.110;2023-04-19T09:49:18;102833.45;;;4.95;24.62
72330;BME280;69154;52.076;5.110;2023-04-19T09:51:39;102824.39;;;4.79;24.24
72330;BME280;69154;52.076;5.110;2023-04-19T09:54:05;102831.53;;;5.72;23.80
72330;BME280;69154;52.076;5.110;2023-04-19T09:56:24;102833.35;;;5.54;24.11
72330;BME280;69154;52.076;5.110;2023-04-19T09:58:50;102832.02;;;7.39;22.10
72330;BME280;69154;52.076;5.110;2023-04-19T10:01:15;102833.16;;;7.31;21.72
72330;BME280;69154;52.076;5.110;2023-04-19T10:03:41;102833.31;;;6.27;23.13
72330;BME280;69154;52.076;5.110;2023-04-19T10:06:06;102832.89;;;7.63;22.37
72330;BME280;69154;52.076;5.110;2023-04-19T10:08:31;102835.26;;;10.55;19.30
72330;BME280;69154;52.076;5.110;2023-04-19T10:11:00;102838.92;;;11.34;19.85
72330;BME280;69154;52.076;5.110;2023-04-19T10:13:21;102829.84;;;10.76;18.72
72330;BME280;69154;52.076;5.110;2023-04-19T10:15:46;102834.23;;;10.76;18.92
72330;BME280;69154;52.076;5.110;2023-04-19T10:18:11;102830.34;;;9.08;20.00
72330;BME280;69154;52.076;5.110;2023-04-19T10:20:40;102831.03;;;8.25;21.36
72330;BME280;69154;52.076;5.110;2023-04-19T10:23:01;102827.99;;;7.00;22.82
72330;BME280;69154;52.076;5.110;2023-04-19T10:25:27;102818.37;;;8.18;21.65
72330;BME280;69154;52.076;5.110;2023-04-19T10:27:51;102814.69;;;8.51;21.67
72330;BME280;69154;52.076;5.110;2023-04-19T10:30:17;102810.38;;;7.97;21.68
72330;BME280;69154;52.076;5.110;2023-04-19T10:32:43;102810.60;;;9.51;21.76
72330;BME280;69154;52.076;5.110;2023-04-19T10:35:08;102806.96;;;9.66;20.71
72330;BME280;69154;52.076;5.110;2023-04-19T10:37:31;102802.27;;;9.76;20.77
72330;BME280;69154;52.076;5.110;2023-04-19T10:39:56;102811.91;;;9.22;20.09
72330;BME280;69154;52.076;5.110;2023-04-19T10:42:22;102804.95;;;7.31;21.64
72330;BME280;69154;52.076;5.110;2023-04-19T10:45:52;102803.43;;;8.38;21.40
72330;BME280;69154;52.076;5.110;2023-04-19T10:47:12;102799.13;;;7.62;21.41
72330;BME280;69154;52.076;5.110;2023-04-19T10:49:43;102792.64;;;7.93;22.09
72330;BME280;69154;52.076;5.110;2023-04-19T10:52:02;102799.42;;;8.73;21.70
72330;BME280;69154;52.076;5.110;2023-04-19T10:54:28;102795.12;;;11.29;19.92
72330;BME280;69154;52.076;5.110;2023-04-19T10:56:57;102794.85;;;7.30;22.65
72330;BME280;69154;52.076;5.110;2023-04-19T10:59:17;102789.97;;;8.30;21.62
72330;BME280;69154;52.076;5.110;2023-04-19T11:01:44;102784.37;;;8.71;21.78
72330;BME280;69154;52.076;5.110;2023-04-19T11:04:08;102786.87;;;8.06;21.92
72330;BME280;69154;52.076;5.110;2023-04-19T11:06:33;102779.50;;;9.00;21.93
72330;BME280;69154;52.076;5.110;2023-04-19T11:08:58;102769.95;;;9.41;20.63
72330;BME280;69154;52.076;5.110;2023-04-19T11:11:23;102765.56;;;10.21;20.11
72330;BME280;69154;52.076;5.110;2023-04-19T11:13:48;102774.74;;;9.23;19.79
72330;BME280;69154;52.076;5.110;2023-04-19T11:16:13;102769.76;;;8.40;20.01
72330;BME280;69154;52.076;5.110;2023-04-19T11:18:38;102772.33;;;8.81;20.53
72330;BME280;69154;52.076;5.110;2023-04-19T11:21:04;102766.36;;;7.96;21.24
72330;BME280;69154;52.076;5.110;2023-04-19T11:23:28;102765.08;;;7.56;21.60
72330;BME280;69154;52.076;5.110;2023-04-19T11:25:54;102761.64;;;8.10;22.19
72330;BME280;69154;52.076;5.110;2023-04-19T11:28:18;102767.04;;;6.91;20.90
72330;BME280;69154;52.076;5.110;2023-04-19T11:30:43;102762.51;;;8.38;20.42
72330;BME280;69154;52.076;5.110;2023-04-19T11:33:11;102761.55;;;8.38;20.43
72330;BME280;69154;52.076;5.110;2023-04-19T11:35:34;102755.82;;;8.08;20.66
72330;BME280;69154;52.076;5.110;2023-04-19T11:37:59;102749.11;;;8.94;19.92
72330;BME280;69154;52.076;5.110;2023-04-19T11:40:25;102755.81;;;8.50;20.07
72330;BME280;69154;52.076;5.110;2023-04-19T11:42:55;102748.29;;;11.24;18.02
72330;BME280;69154;52.076;5.110;2023-04-19T11:45:24;102745.73;;;11.51;17.46
72330;BME280;69154;52.076;5.110;2023-04-19T11:47:46;102740.33;;;10.12;18.99
72330;BME280;69154;52.076;5.110;2023-04-19T11:50:38;102732.93;;;11.76;17.35
72330;BME280;69154;52.076;5.110;2023-04-19T11:52:29;102731.81;;;9.39;19.18
72330;BME280;69154;52.076;5.110;2023-04-19T11:54:54;102731.42;;;9.19;20.01
72330;BME280;69154;52.076;5.110;2023-04-19T11:57:27;102724.29;;;9.25;18.43
72330;BME280;69154;52.076;5.110;2023-04-19T12:00:02;102719.50;;;11.83;17.35
72330;BME280;69154;52.076;5.110;2023-04-19T12:02:10;102715.51;;;10.41;17.72
72330;BME280;69154;52.076;5.110;2023-04-19T12:04:34;102703.00;;;11.82;17.46
72330;BME280;69154;52.076;5.110;2023-04-19T12:07:00;102703.99;;;15.52;15.80
72330;BME280;69154;52.076;5.110;2023-04-19T12:09:31;102703.26;;;11.48;16.70
72330;BME280;69154;52.076;5.110;2023-04-19T12:11:49;102702.31;;;13.51;15.64
72330;BME280;69154;52.076;5.110;2023-04-19T12:14:17;102701.72;;;11.59;16.02
72330;BME280;69154;52.076;5.110;2023-04-19T12:16:41;102694.28;;;11.33;16.40
72330;BME280;69154;52.076;5.110;2023-04-19T12:19:10;102698.34;;;12.28;15.95
72330;BME280;69154;52.076;5.110;2023-04-19T12:21:32;102698.45;;;10.58;16.04
72330;BME280;69154;52.076;5.110;2023-04-19T12:23:59;102711.30;;;10.01;16.32
72330;BME280;69154;52.076;5.110;2023-04-19T12:26:24;102699.71;;;10.45;16.33
72330;BME280;69154;52.076;5.110;2023-04-19T12:28:47;102692.39;;;10.61;16.54
72330;BME280;69154;52.076;5.110;2023-04-19T12:31:12;102708.86;;;9.07;16.98
72330;BME280;69154;52.076;5.110;2023-04-19T12:33:37;102693.48;;;8.36;17.07
72330;BME280;69154;52.076;5.110;2023-04-19T12:36:04;102696.86;;;9.18;17.08
72330;BME280;69154;52.076;5.110;2023-04-19T12:38:28;102696.46;;;10.39;16.87
72330;BME280;69154;52.076;5.110;2023-04-19T12:40:53;102682.14;;;10.85;17.04
72330;BME280;69154;52.076;5.110;2023-04-19T12:43:19;102686.01;;;10.54;16.58
72330;BME280;69154;52.076;5.110;2023-04-19T12:45:43;102681.39;;;11.64;16.19
72330;BME280;69154;52.076;5.110;2023-04-19T12:48:08;102685.59;;;10.35;15.37
72330;BME280;69154;52.076;5.110;2023-04-19T12:50:34;102687.54;;;10.12;15.22